Time;durP1;ratioP1;P1;durP2;ratioP2;P2;SDS_P1;SDS_P2;PMS_P1;PMS_P2;Temp;Humidity;BMP_temperature;BMP_pressure;BME280_temperature;BME280_humidity;BME280_pressure;Samples;Min_cycle;Max_cycle;Signal;HPM_P1;HPM_P2
2021/11/11 00:00:02;;;;;;;31.20;18.83;;;3.30;99.90;;;;;;5000298;28;20177;-77
2021/11/11 00:02:29;;;;;;;31.63;18.17;;;3.20;99.90;;;;;;5000223;28;20205;-77
2021/11/11 00:04:58;;;;;;;30.37;17.97;;;3.30;99.90;;;;;;4999887;28;20276;-77
2021/11/11 00:07:23;;;;;;;27.07;16.90;;;3.50;99.90;;;;;;5000071;28;20185;-77
2021/11/11 00:09:49;;;;;;;25.33;16.30;;;3.30;99.90;;;;;;4999956;28;20234;-77
2021/11/11 00:12:15;;;;;;;24.23;15.17;;;3.30;99.90;;;;;;4996026;28;20712;-77
2021/11/11 00:14:41;;;;;;;23.50;16.23;;;3.30;99.90;;;;;;5000503;28;20262;-78
2021/11/11 00:17:06;;;;;;;20.80;15.43;;;3.30;99.90;;;;;;5000589;28;20247;-78
2021/11/11 00:19:32;;;;;;;22.40;15.13;;;3.30;99.90;;;;;;5000373;28;20181;-77
2021/11/11 00:21:58;;;;;;;20.43;14.30;;;3.40;99.90;;;;;;5018217;28;20202;-78
2021/11/11 00:24:23;;;;;;;21.07;15.30;;;3.40;99.90;;;;;;5018072;28;20185;-78
2021/11/11 00:26:49;;;;;;;23.00;15.93;;;3.40;99.90;;;;;;5000493;28;20629;-77
2021/11/11 00:29:15;;;;;;;22.90;15.97;;;3.40;99.90;;;;;;4999258;28;20190;-77
2021/11/11 00:31:41;;;;;;;28.10;15.80;;;3.40;99.90;;;;;;4998977;28;20205;-77
2021/11/11 00:34:06;;;;;;;26.37;16.00;;;3.30;99.90;;;;;;4999316;28;20680;-78
2021/11/11 00:36:32;;;;;;;26.70;16.63;;;3.30;99.90;;;;;;5017151;28;20659;-78
2021/11/11 00:38:58;;;;;;;23.90;16.50;;;3.20;99.90;;;;;;5000174;28;20276;-78
2021/11/11 00:41:24;;;;;;;27.80;17.23;;;3.00;99.90;;;;;;5016739;28;20198;-78
2021/11/11 00:43:50;;;;;;;21.13;15.33;;;2.80;99.90;;;;;;4999104;28;20185;-78
2021/11/11 00:46:16;;;;;;;22.93;15.67;;;2.70;99.90;;;;;;5017489;28;20180;-78
2021/11/11 00:48:41;;;;;;;24.77;14.83;;;2.80;99.90;;;;;;5018773;28;20176;-78
2021/11/11 00:51:07;;;;;;;23.40;15.30;;;2.80;99.90;;;;;;5018650;28;20723;-78
2021/11/11 00:53:33;;;;;;;19.43;14.57;;;2.90;99.90;;;;;;5019645;28;20185;-78
2021/11/11 00:55:59;;;;;;;23.20;15.30;;;2.90;99.90;;;;;;5020303;28;20260;-78
2021/11/11 00:58:25;;;;;;;19.40;13.97;;;2.90;99.90;;;;;;4999332;28;20322;-79
2021/11/11 01:00:51;;;;;;;21.70;15.17;;;2.90;99.90;;;;;;5019979;28;20197;-79
2021/11/11 01:03:19;;;;;;;20.30;14.50;;;2.90;99.90;;;;;;5019877;28;20177;-79
2021/11/11 01:05:45;;;;;;;21.07;14.50;;;2.90;99.90;;;;;;4999004;28;20646;-79
2021/11/11 01:08:11;;;;;;;21.57;13.83;;;2.90;99.90;;;;;;5002771;28;20205;-79
2021/11/11 01:10:36;;;;;;;22.97;14.93;;;2.80;99.90;;;;;;5020610;28;20240;-79
2021/11/11 01:13:03;;;;;;;22.00;15.07;;;2.90;99.90;;;;;;5002968;28;20201;-79
2021/11/11 01:15:30;;;;;;;20.27;14.00;;;2.90;99.90;;;;;;5002137;28;20291;-79
2021/11/11 01:18:00;;;;;;;19.57;14.70;;;2.90;99.90;;;;;;5019206;28;20275;-79
2021/11/11 01:20:26;;;;;;;17.77;14.27;;;2.70;99.90;;;;;;5020233;28;20236;-78
2021/11/11 01:22:54;;;;;;;18.27;14.00;;;2.70;99.90;;;;;;5002631;28;20171;-79
2021/11/11 01:25:23;;;;;;;17.17;13.87;;;2.80;99.90;;;;;;5019964;28;20185;-79
2021/11/11 01:27:49;;;;;;;19.90;14.87;;;2.80;99.90;;;;;;5028027;22;20224;-73
2021/11/11 01:30:15;;;;;;;17.77;13.27;;;2.70;99.90;;;;;;5014049;28;20176;-74
2021/11/11 01:32:41;;;;;;;20.67;14.20;;;2.60;99.90;;;;;;5014392;28;20179;-75
2021/11/11 01:35:08;;;;;;;19.43;13.63;;;2.50;99.90;;;;;;5014260;28;20200;-75
2021/11/11 01:37:34;;;;;;;20.07;14.53;;;2.50;99.90;;;;;;4996253;28;20201;-74
2021/11/11 01:40:00;;;;;;;22.73;13.87;;;2.60;99.90;;;;;;5014443;28;20579;-74
2021/11/11 01:42:26;;;;;;;18.37;13.93;;;2.60;99.90;;;;;;5014114;28;20256;-74
2021/11/11 01:44:55;;;;;;;19.77;13.43;;;2.60;99.90;;;;;;5014074;28;20175;-74
2021/11/11 01:47:21;;;;;;;18.13;13.67;;;2.50;99.90;;;;;;5013626;28;20201;-74
2021/11/11 01:49:48;;;;;;;20.20;13.20;;;2.40;99.90;;;;;;5013815;28;20574;-74
2021/11/11 01:52:17;;;;;;;19.53;13.47;;;2.30;99.90;;;;;;5013780;28;20179;-74
2021/11/11 01:54:43;;;;;;;18.33;13.00;;;2.30;99.90;;;;;;5013770;28;20193;-74
2021/11/11 01:57:09;;;;;;;17.53;14.07;;;2.10;99.90;;;;;;5013522;28;20202;-73
2021/11/11 01:59:35;;;;;;;20.63;13.80;;;2.10;99.90;;;;;;5013710;28;20165;-73
2021/11/11 02:02:01;;;;;;;18.67;13.43;;;2.20;99.90;;;;;;5014362;28;20567;-73
2021/11/11 02:04:27;;;;;;;16.87;12.50;;;2.30;99.90;;;;;;5013694;28;20318;-71
2021/11/11 02:06:53;;;;;;;15.40;12.40;;;2.40;99.90;;;;;;4996242;28;20274;-75
2021/11/11 02:09:19;;;;;;;15.47;13.00;;;2.50;99.90;;;;;;5013423;28;20179;-74
2021/11/11 02:11:47;;;;;;;16.63;12.80;;;2.50;99.90;;;;;;5013554;28;20580;-73
2021/11/11 02:14:14;;;;;;;16.40;12.40;;;2.40;99.90;;;;;;5013446;28;20191;-73
2021/11/11 02:16:41;;;;;;;18.23;12.77;;;2.40;99.90;;;;;;4995934;28;20594;-73
2021/11/11 02:19:08;;;;;;;16.03;12.37;;;2.50;99.90;;;;;;5013267;28;20173;-73
2021/11/11 02:21:37;;;;;;;14.03;12.43;;;2.50;99.90;;;;;;5013356;28;20250;-74
2021/11/11 02:24:03;;;;;;;17.93;13.87;;;2.30;99.90;;;;;;4995677;28;20246;-74
2021/11/11 02:26:29;;;;;;;17.00;13.27;;;2.20;99.90;;;;;;5013182;28;20220;-74
2021/11/11 02:28:55;;;;;;;15.23;12.57;;;2.10;99.90;;;;;;4995061;28;20229;-74
2021/11/11 02:31:21;;;;;;;16.40;11.87;;;2.00;99.90;;;;;;4995690;28;20535;-74
2021/11/11 02:33:54;;;;;;;21.83;13.37;;;1.90;99.90;;;;;;5013166;28;20198;-73
2021/11/11 02:36:20;;;;;;;17.13;11.47;;;1.90;99.90;;;;;;5013062;28;20191;-74
2021/11/11 02:38:46;;;;;;;18.03;12.33;;;1.90;99.90;;;;;;5012813;28;20653;-74
2021/11/11 02:41:11;;;;;;;15.90;12.10;;;2.00;99.90;;;;;;5013231;28;20179;-73
2021/11/11 02:43:38;;;;;;;16.67;12.50;;;2.10;99.90;;;;;;5013114;28;20172;-74
2021/11/11 02:46:04;;;;;;;16.63;11.93;;;2.10;99.90;;;;;;5012672;28;20205;-74
2021/11/11 02:48:30;;;;;;;16.47;11.57;;;2.10;99.90;;;;;;4995132;28;20203;-75
2021/11/11 02:50:55;;;;;;;14.90;11.50;;;2.20;99.90;;;;;;5013031;28;20180;-74
2021/11/11 02:53:22;;;;;;;15.50;11.13;;;2.20;99.90;;;;;;5013221;28;20182;-74
2021/11/11 02:55:48;;;;;;;14.70;11.33;;;2.20;99.90;;;;;;5012923;28;20207;-74
2021/11/11 02:58:15;;;;;;;14.83;11.00;;;2.10;99.90;;;;;;5012691;28;20666;-74
2021/11/11 03:00:40;;;;;;;14.07;11.10;;;2.20;99.90;;;;;;5012870;28;20182;-75
2021/11/11 03:03:06;;;;;;;14.27;10.93;;;2.20;99.90;;;;;;4995074;28;20540;-74
2021/11/11 03:05:33;;;;;;;14.90;11.10;;;2.20;99.90;;;;;;5018678;28;20187;-75
2021/11/11 03:07:59;;;;;;;19.00;11.63;;;2.30;99.90;;;;;;5009515;28;20203;-75
2021/11/11 03:10:27;;;;;;;15.23;11.53;;;2.30;99.90;;;;;;5009253;28;20188;-75
2021/11/11 03:12:55;;;;;;;17.33;10.97;;;2.40;99.90;;;;;;5007717;28;20165;-74
2021/11/11 03:15:23;;;;;;;15.63;10.73;;;2.40;99.90;;;;;;4997305;28;20575;-74
2021/11/11 03:17:49;;;;;;;15.57;10.63;;;2.40;99.90;;;;;;4998378;28;20586;-74
2021/11/11 03:20:16;;;;;;;12.13;10.67;;;2.40;99.90;;;;;;4998924;28;20602;-73
2021/11/11 03:22:42;;;;;;;16.97;10.60;;;2.30;99.90;;;;;;5016662;28;20198;-75
2021/11/11 03:25:14;;;;;;;13.53;10.33;;;2.30;99.90;;;;;;5015994;28;20515;-73
2021/11/11 03:27:40;;;;;;;12.17;9.30;;;2.20;99.90;;;;;;5016162;28;20696;-74
2021/11/11 03:30:09;;;;;;;11.40;9.70;;;2.20;99.90;;;;;;5016662;28;20174;-75
2021/11/11 03:32:35;;;;;;;11.47;10.23;;;2.20;99.90;;;;;;4999620;28;20258;-73
2021/11/11 03:35:01;;;;;;;10.50;9.13;;;2.20;99.90;;;;;;4998847;28;20285;-74
2021/11/11 03:37:26;;;;;;;14.13;9.83;;;2.00;99.90;;;;;;5015675;28;20191;-74
2021/11/11 03:39:52;;;;;;;11.03;9.63;;;2.00;99.90;;;;;;5016574;28;20270;-73
2021/11/11 03:42:18;;;;;;;15.90;9.97;;;2.00;99.90;;;;;;5016361;28;20198;-74
2021/11/11 03:44:45;;;;;;;13.80;10.43;;;2.10;99.90;;;;;;4999300;28;20179;-74
2021/11/11 03:47:11;;;;;;;12.27;9.43;;;1.90;99.90;;;;;;5016019;28;20674;-73
2021/11/11 03:49:38;;;;;;;13.77;10.23;;;1.90;99.90;;;;;;4998870;28;20541;-73
2021/11/11 03:52:04;;;;;;;13.03;10.03;;;1.90;99.90;;;;;;5016225;28;20539;-75
2021/11/11 03:54:30;;;;;;;14.00;10.40;;;1.90;99.90;;;;;;5016081;28;20198;-73
2021/11/11 03:56:57;;;;;;;13.43;10.03;;;1.80;99.90;;;;;;4997906;28;20191;-74
2021/11/11 03:59:25;;;;;;;15.67;11.17;;;1.80;99.90;;;;;;4998345;28;20230;-74
2021/11/11 04:01:51;;;;;;;16.10;10.37;;;1.90;99.90;;;;;;5016090;28;20191;-73
2021/11/11 04:04:17;;;;;;;13.13;11.00;;;1.90;99.90;;;;;;5016030;28;20546;-74
2021/11/11 04:06:43;;;;;;;12.23;10.07;;;1.80;99.90;;;;;;5015705;28;20544;-75
2021/11/11 04:09:09;;;;;;;10.63;9.53;;;1.80;99.90;;;;;;5015949;28;20186;-74
2021/11/11 04:11:35;;;;;;;12.40;10.17;;;1.90;99.90;;;;;;5015853;28;20179;-74
2021/11/11 04:14:02;;;;;;;11.73;9.83;;;1.90;99.90;;;;;;5015774;28;20194;-74
2021/11/11 04:16:27;;;;;;;13.37;9.90;;;2.00;99.90;;;;;;5014363;28;20286;-73
2021/11/11 04:18:53;;;;;;;11.77;10.00;;;2.00;99.90;;;;;;5015469;28;20253;-74
2021/11/11 04:21:20;;;;;;;13.40;10.00;;;1.90;99.90;;;;;;5015821;28;20174;-74
2021/11/11 04:23:48;;;;;;;12.30;9.80;;;1.90;99.90;;;;;;5015526;28;20222;-74
2021/11/11 04:26:33;;;;;;;15.77;9.93;;;1.80;99.90;;;;;;5015372;28;20210;-74
2021/11/11 04:31:28;;;;;;;14.73;10.40;;;1.70;99.90;;;;;;5015528;28;20190;-75
2021/11/11 04:33:59;;;;;;;14.10;10.53;;;1.60;99.90;;;;;;5015203;28;20260;-74
2021/11/11 04:41:59;;;;;;;12.83;11.20;;;1.40;99.90;;;;;;5015305;28;20174;-73
2021/11/11 04:47:07;;;;;;;12.53;10.33;;;1.40;99.90;;;;;;5014839;28;20326;-74
2021/11/11 05:03:33;;;;;;;15.43;10.77;;;1.50;99.90;;;;;;4988694;28;20194;-74
2021/11/11 05:06:01;;;;;;;14.80;11.63;;;1.40;99.90;;;;;;5017478;28;20171;-74
2021/11/11 05:08:27;;;;;;;15.40;10.67;;;1.30;99.90;;;;;;5026254;28;20174;-74
2021/11/11 05:10:53;;;;;;;14.60;10.27;;;1.20;99.90;;;;;;5014742;28;20171;-73
2021/11/11 05:13:20;;;;;;;12.87;10.40;;;1.10;99.90;;;;;;5016131;28;20179;-73
2021/11/11 05:15:45;;;;;;;20.27;11.27;;;1.10;99.90;;;;;;4997173;28;20195;-72
2021/11/11 05:18:11;;;;;;;19.50;12.03;;;1.00;99.90;;;;;;4996789;28;20197;-73
2021/11/11 05:20:37;;;;;;;15.03;11.57;;;0.90;99.90;;;;;;4997327;28;20254;-74
2021/11/11 05:23:03;;;;;;;15.97;11.73;;;1.10;99.90;;;;;;5011184;28;20177;-73
2021/11/11 05:25:29;;;;;;;14.40;10.57;;;1.20;99.90;;;;;;4993410;28;20179;-73
2021/11/11 05:27:55;;;;;;;17.63;13.03;;;1.30;99.90;;;;;;4978266;28;20242;-74
2021/11/11 05:30:21;;;;;;;18.63;13.53;;;1.40;99.90;;;;;;5013627;28;20607;-74
2021/11/11 05:32:48;;;;;;;18.93;12.87;;;1.40;99.90;;;;;;5014791;28;20187;-73
2021/11/11 05:35:15;;;;;;;16.30;12.43;;;1.30;99.90;;;;;;4996828;28;20191;-74
2021/11/11 05:37:42;;;;;;;16.83;12.43;;;1.30;99.90;;;;;;5014014;28;20198;-75
2021/11/11 05:40:10;;;;;;;15.23;11.93;;;1.10;99.90;;;;;;5014241;28;20171;-74
2021/11/11 05:42:35;;;;;;;16.43;13.27;;;1.00;99.90;;;;;;5014623;28;20302;-73
2021/11/11 05:45:02;;;;;;;17.30;12.40;;;1.00;99.90;;;;;;5014019;28;20258;-73
2021/11/11 05:47:27;;;;;;;19.27;13.17;;;1.10;99.90;;;;;;5013924;28;20217;-74
2021/11/11 05:49:53;;;;;;;27.50;15.70;;;1.10;99.90;;;;;;5014471;28;20183;-73
2021/11/11 05:52:19;;;;;;;26.80;15.97;;;1.00;99.90;;;;;;5014081;28;20179;-77
2021/11/11 05:54:45;;;;;;;25.20;16.03;;;1.10;99.90;;;;;;5014016;28;20273;-74
2021/11/11 05:57:11;;;;;;;29.00;18.30;;;1.20;99.90;;;;;;5013893;28;20234;-75
2021/11/11 05:59:40;;;;;;;27.50;18.07;;;1.30;99.90;;;;;;5013816;28;20178;-75
2021/11/11 06:02:11;;;;;;;25.70;17.43;;;1.20;99.90;;;;;;5013677;28;20257;-76
2021/11/11 06:04:38;;;;;;;21.90;14.80;;;1.20;99.90;;;;;;5013887;28;20176;-74
2021/11/11 06:07:05;;;;;;;25.27;16.07;;;1.30;99.90;;;;;;5013577;28;20784;-74
2021/11/11 06:09:31;;;;;;;36.43;18.33;;;1.30;99.90;;;;;;5013724;28;20368;-74
2021/11/11 06:11:57;;;;;;;60.63;21.33;;;1.30;99.90;;;;;;5013798;28;20207;-75
2021/11/11 06:14:23;;;;;;;42.50;21.53;;;1.30;99.90;;;;;;4995933;28;20242;-75
2021/11/11 06:16:49;;;;;;;46.17;21.20;;;1.20;99.90;;;;;;5013146;28;20199;-75
2021/11/11 06:19:16;;;;;;;38.63;20.00;;;1.20;99.90;;;;;;5013740;28;20335;-75
2021/11/11 06:21:44;;;;;;;38.13;20.13;;;1.10;99.90;;;;;;5013240;28;20175;-75
2021/11/11 06:24:11;;;;;;;48.87;21.93;;;1.20;99.90;;;;;;4995791;28;20183;-75
2021/11/11 06:26:36;;;;;;;41.47;21.63;;;1.20;99.90;;;;;;5012952;28;20215;-74
2021/11/11 06:29:03;;;;;;;55.60;22.23;;;1.30;99.90;;;;;;5013563;28;20228;-75
2021/11/11 06:31:29;;;;;;;61.00;21.83;;;1.20;99.90;;;;;;5013360;28;20201;-74
2021/11/11 06:33:55;;;;;;;42.97;21.33;;;1.20;99.90;;;;;;5012555;28;20607;-75
2021/11/11 06:36:21;;;;;;;45.37;20.60;;;1.20;99.90;;;;;;5012020;28;20728;-75
2021/11/11 06:38:48;;;;;;;54.33;21.60;;;1.20;99.90;;;;;;5011424;28;20171;-75
2021/11/11 06:41:14;;;;;;;47.47;21.63;;;1.20;99.90;;;;;;4995335;28;20536;-74
2021/11/11 06:43:40;;;;;;;47.10;21.43;;;1.10;99.90;;;;;;4995547;28;20171;-74
2021/11/11 06:46:06;;;;;;;40.40;20.90;;;1.10;99.90;;;;;;4995105;28;20541;-75
2021/11/11 06:48:32;;;;;;;45.97;21.23;;;1.20;99.90;;;;;;5012577;28;20179;-75
2021/11/11 06:50:58;;;;;;;41.60;20.97;;;1.30;99.90;;;;;;5010490;28;20258;-75
2021/11/11 06:53:25;;;;;;;43.27;21.50;;;1.40;99.90;;;;;;5010892;28;20180;-74
2021/11/11 06:55:51;;;;;;;43.10;20.27;;;1.50;99.90;;;;;;4994725;28;20191;-74
2021/11/11 06:58:22;;;;;;;37.50;21.20;;;1.60;99.90;;;;;;5012973;28;20197;-74
2021/11/11 07:01:00;;;;;;;37.67;20.40;;;1.60;99.90;;;;;;4994635;28;20201;-76
2021/11/11 07:03:27;;;;;;;37.77;19.93;;;1.70;99.90;;;;;;4995428;28;20237;-76
2021/11/11 07:05:52;;;;;;;35.57;19.70;;;1.70;99.90;;;;;;4995428;28;20179;-74
2021/11/11 07:08:18;;;;;;;40.40;19.63;;;1.70;99.90;;;;;;5012477;28;20224;-75
2021/11/11 07:10:46;;;;;;;33.97;20.77;;;1.80;99.90;;;;;;5013124;28;20183;-75
2021/11/11 07:13:13;;;;;;;35.17;20.43;;;1.80;99.90;;;;;;5012519;28;20185;-76
2021/11/11 07:15:40;;;;;;;41.57;22.77;;;1.70;99.90;;;;;;5011568;28;20209;-76
2021/11/11 07:18:08;;;;;;;31.93;19.93;;;1.60;99.90;;;;;;5012277;28;20666;-75
2021/11/11 07:20:35;;;;;;;36.10;23.27;;;1.50;99.90;;;;;;4994866;28;20182;-75
2021/11/11 07:23:03;;;;;;;33.30;19.20;;;1.50;99.90;;;;;;4992424;28;20267;-75
2021/11/11 07:25:29;;;;;;;36.97;19.93;;;1.60;99.90;;;;;;4994497;28;20189;-75
2021/11/11 07:27:55;;;;;;;34.03;19.37;;;1.60;99.90;;;;;;4991987;28;20262;-76
2021/11/11 07:30:22;;;;;;;32.07;18.70;;;1.70;99.90;;;;;;4994554;28;20186;-75
2021/11/11 07:32:48;;;;;;;39.33;19.43;;;1.70;99.90;;;;;;4993923;28;20234;-75
2021/11/11 07:35:15;;;;;;;34.07;18.60;;;1.70;99.90;;;;;;4994933;28;20199;-75
2021/11/11 07:37:43;;;;;;;48.47;22.10;;;1.70;99.90;;;;;;4994581;28;20191;-75
2021/11/11 07:40:11;;;;;;;49.73;24.40;;;1.60;99.90;;;;;;4994738;28;20184;-75
2021/11/11 07:42:37;;;;;;;41.83;22.47;;;1.50;99.90;;;;;;4995062;28;20552;-75
2021/11/11 07:45:04;;;;;;;43.87;22.13;;;1.50;99.90;;;;;;4993466;28;20209;-75
2021/11/11 07:47:31;;;;;;;38.80;20.53;;;1.60;99.90;;;;;;5001335;28;20199;-75
2021/11/11 07:49:58;;;;;;;45.57;20.23;;;1.60;99.90;;;;;;5009041;28;20647;-75
2021/11/11 07:52:27;;;;;;;43.90;21.40;;;1.70;99.90;;;;;;5014456;28;20225;-75
2021/11/11 07:54:57;;;;;;;32.67;18.73;;;1.80;99.90;;;;;;5011627;28;20666;-75
2021/11/11 07:57:25;;;;;;;39.73;20.63;;;1.90;99.90;;;;;;5014558;28;20219;-75
2021/11/11 07:59:51;;;;;;;41.40;21.03;;;1.90;99.90;;;;;;4996147;28;20582;-75
2021/11/11 08:02:18;;;;;;;35.83;21.33;;;1.90;99.90;;;;;;4994914;28;20172;-75
2021/11/11 08:04:44;;;;;;;38.30;21.40;;;1.90;99.90;;;;;;5015631;28;20186;-75
2021/11/11 08:07:10;;;;;;;39.10;21.80;;;1.90;99.90;;;;;;4997693;28;20234;-75
2021/11/11 08:09:36;;;;;;;44.43;22.17;;;2.00;99.90;;;;;;5014755;28;20272;-75
2021/11/11 08:12:01;;;;;;;44.33;24.40;;;2.10;99.90;;;;;;5010022;28;20211;-78
2021/11/11 08:14:27;;;;;;;46.60;23.60;;;2.10;99.90;;;;;;4984102;28;20264;-76
2021/11/11 08:16:53;;;;;;;44.77;23.37;;;2.10;99.90;;;;;;5014724;28;20191;-76
2021/11/11 08:19:19;;;;;;;41.87;23.33;;;2.20;99.90;;;;;;5053564;22;20702;-82
2021/11/11 08:21:45;;;;;;;49.07;23.53;;;2.30;99.90;;;;;;5010677;28;20171;-82
2021/11/11 08:24:11;;;;;;;39.23;21.83;;;2.30;99.90;;;;;;5007905;28;20192;-82
2021/11/11 08:26:36;;;;;;;39.03;21.30;;;2.30;99.90;;;;;;5009485;28;20638;-82
2021/11/11 08:29:02;;;;;;;37.67;21.97;;;2.30;99.90;;;;;;5026650;28;20229;-82
2021/11/11 08:31:28;;;;;;;40.07;21.47;;;2.30;99.90;;;;;;5009801;28;20186;-83
2021/11/11 08:33:53;;;;;;;42.27;21.57;;;2.40;99.90;;;;;;5010038;28;20171;-83
2021/11/11 08:36:19;;;;;;;46.23;22.87;;;2.40;99.90;;;;;;5026710;28;20185;-82
2021/11/11 08:38:45;;;;;;;57.87;25.53;;;2.40;99.90;;;;;;5008649;28;20230;-83
2021/11/11 08:41:11;;;;;;;53.30;26.83;;;2.50;99.90;;;;;;5026323;28;20211;-82
2021/11/11 08:43:38;;;;;;;61.17;28.50;;;2.50;99.90;;;;;;5008825;28;20186;-82
2021/11/11 08:46:04;;;;;;;52.50;24.77;;;2.50;99.90;;;;;;5008269;28;20221;-81
2021/11/11 08:48:29;;;;;;;58.20;28.03;;;2.60;99.90;;;;;;5008656;28;20575;-81
2021/11/11 08:50:56;;;;;;;52.23;23.83;;;2.70;99.90;;;;;;5026789;28;20218;-80
2021/11/11 08:53:22;;;;;;;43.23;21.83;;;2.60;99.90;;;;;;5019147;28;20179;-80
2021/11/11 08:55:48;;;;;;;40.13;21.93;;;2.50;99.90;;;;;;5029323;28;20288;-82
2021/11/11 08:58:15;;;;;;;39.20;21.23;;;2.40;99.90;;;;;;5004933;28;20300;-79
2021/11/11 09:00:44;;;;;;;36.30;19.10;;;2.60;99.90;;;;;;5001797;28;20190;-81
2021/11/11 09:03:12;;;;;;;36.47;19.50;;;2.50;99.90;;;;;;5007983;28;20181;-81
2021/11/11 09:05:38;;;;;;;38.23;20.03;;;2.60;99.90;;;;;;5009185;28;20187;-82
2021/11/11 09:08:06;;;;;;;22.87;16.63;;;2.70;99.90;;;;;;5026258;28;20193;-80
2021/11/11 09:10:32;;;;;;;16.00;14.23;;;2.70;99.90;;;;;;5026663;28;20211;-82
2021/11/11 09:12:58;;;;;;;17.73;14.80;;;2.90;99.90;;;;;;5021109;28;20190;-81
2021/11/11 09:15:27;;;;;;;22.80;17.10;;;2.90;99.90;;;;;;5018321;28;20217;-82
2021/11/11 09:17:54;;;;;;;16.50;14.80;;;2.90;99.90;;;;;;5024175;28;20180;-80
2021/11/11 09:20:20;;;;;;;24.80;17.03;;;3.10;99.90;;;;;;5001328;28;20186;-83
2021/11/11 09:22:48;;;;;;;22.37;16.57;;;3.10;99.90;;;;;;5018222;28;20180;-84
2021/11/11 09:25:14;;;;;;;17.33;15.47;;;3.10;99.90;;;;;;5018038;28;20181;-84
2021/11/11 09:27:43;;;;;;;21.77;16.47;;;3.20;99.90;;;;;;5001037;28;20527;-85
2021/11/11 09:30:19;;;;;;;16.73;14.93;;;3.30;99.90;;;;;;5016430;28;20219;-83
2021/11/11 09:32:45;;;;;;;19.33;16.07;;;3.50;99.90;;;;;;5001251;28;20195;-83
2021/11/11 09:35:12;;;;;;;15.20;13.70;;;3.60;99.90;;;;;;5019510;28;20210;-84
2021/11/11 09:37:38;;;;;;;15.27;13.67;;;3.80;99.90;;;;;;5019549;28;20181;-83
2021/11/11 09:40:07;;;;;;;21.87;17.07;;;3.70;99.90;;;;;;5019380;28;20579;-83
2021/11/11 09:42:34;;;;;;;29.10;19.60;;;3.80;99.90;;;;;;5000111;28;20185;-84
2021/11/11 09:45:01;;;;;;;30.63;21.23;;;3.90;99.90;;;;;;4999700;28;20180;-83
2021/11/11 09:47:26;;;;;;;26.80;19.53;;;3.90;99.90;;;;;;5019612;28;20209;-84
2021/11/11 09:49:52;;;;;;;27.73;19.80;;;3.90;99.90;;;;;;5019738;28;20210;-83
2021/11/11 09:52:18;;;;;;;25.57;18.90;;;4.00;99.90;;;;;;5019518;28;20186;-83
2021/11/11 10:00:14;;;;;;;40.70;25.50;;;3.80;99.90;;;;;;5019072;28;20254;-83
2021/11/11 10:02:39;;;;;;;52.53;33.03;;;3.80;99.90;;;;;;5019500;28;20177;-83
2021/11/11 10:05:07;;;;;;;45.23;28.07;;;3.80;99.90;;;;;;5018824;28;20719;-83
2021/11/11 10:07:33;;;;;;;39.90;26.23;;;3.60;99.90;;;;;;5020047;28;20179;-83
2021/11/11 10:09:59;;;;;;;41.73;24.73;;;3.80;99.90;;;;;;5019844;28;20692;-84
2021/11/11 10:12:25;;;;;;;47.93;28.30;;;3.80;99.90;;;;;;5020222;28;20185;-83
2021/11/11 10:15:05;;;;;;;27.23;20.40;;;3.80;99.90;;;;;;5001861;28;20200;-83
2021/11/11 10:17:40;;;;;;;26.33;18.80;;;3.80;99.90;;;;;;5002077;28;20183;-83
2021/11/11 10:20:06;;;;;;;28.57;19.73;;;4.00;99.90;;;;;;5001462;28;20595;-83
2021/11/11 10:22:35;;;;;;;27.10;21.10;;;4.00;99.90;;;;;;5018892;28;20173;-83
2021/11/11 10:25:06;;;;;;;33.43;22.03;;;4.20;99.90;;;;;;5018990;28;20204;-83
2021/11/11 10:30:12;;;;;;;44.00;27.37;;;4.10;99.90;;;;;;5018425;28;20203;-82
2021/11/11 10:32:44;;;;;;;46.47;28.57;;;4.00;99.90;;;;;;5018623;28;20172;-83
2021/11/11 10:35:14;;;;;;;34.13;22.40;;;4.10;99.90;;;;;;5000464;28;20639;-83
2021/11/11 10:37:49;;;;;;;48.80;29.13;;;4.10;99.90;;;;;;5018860;28;20180;-83
2021/11/11 10:40:18;;;;;;;45.60;27.87;;;4.10;99.90;;;;;;5001609;28;20621;-83
2021/11/11 10:42:46;;;;;;;56.73;34.73;;;4.20;99.90;;;;;;5018465;28;20228;-83
2021/11/11 10:45:15;;;;;;;36.43;21.97;;;4.30;99.90;;;;;;5001248;28;20182;-83
2021/11/11 10:47:44;;;;;;;30.63;21.17;;;4.30;99.90;;;;;;5018252;28;20611;-83
2021/11/11 10:50:13;;;;;;;34.87;23.67;;;4.30;99.90;;;;;;5018623;28;20192;-83
2021/11/11 10:52:51;;;;;;;34.60;23.10;;;4.40;99.90;;;;;;5019062;28;20177;-83
2021/11/11 10:55:30;;;;;;;34.77;22.83;;;4.50;99.90;;;;;;5020356;28;20208;-83
2021/11/11 10:58:10;;;;;;;33.33;23.23;;;4.60;99.90;;;;;;5014366;28;20192;-84
2021/11/11 11:00:54;;;;;;;31.87;22.83;;;4.80;99.90;;;;;;5001162;28;20270;-83
2021/11/11 11:03:31;;;;;;;32.37;23.30;;;4.80;99.90;;;;;;5018992;28;20225;-83
2021/11/11 11:06:08;;;;;;;28.37;22.00;;;4.90;99.90;;;;;;5000769;28;20231;-82
2021/11/11 11:08:49;;;;;;;31.60;21.30;;;5.20;99.90;;;;;;4999811;28;20210;-79
2021/11/11 11:11:27;;;;;;;29.17;20.97;;;5.40;99.90;;;;;;4995525;28;20499;-83
2021/11/11 11:14:17;;;;;;;30.60;21.50;;;5.70;99.90;;;;;;4988290;28;20189;-80
2021/11/11 11:16:44;;;;;;;32.20;22.83;;;5.90;99.90;;;;;;5016506;28;20186;-80
2021/11/11 11:19:12;;;;;;;43.00;26.53;;;6.00;99.90;;;;;;4999478;28;20246;-80
2021/11/11 11:21:47;;;;;;;43.73;27.10;;;6.00;99.90;;;;;;5016684;28;20175;-80
2021/11/11 11:24:15;;;;;;;38.90;24.07;;;6.20;99.90;;;;;;5015852;28;20224;-80
2021/11/11 11:26:48;;;;;;;35.97;22.47;;;6.30;99.90;;;;;;5019675;28;20221;-79
2021/11/11 11:29:28;;;;;;;30.43;22.20;;;6.20;99.90;;;;;;5001159;28;20226;-81
2021/11/11 11:32:09;;;;;;;26.63;19.53;;;6.40;99.90;;;;;;5020252;28;20179;-79
2021/11/11 11:34:39;;;;;;;40.43;25.23;;;6.50;99.90;;;;;;5019463;28;20252;-81
2021/11/11 11:37:06;;;;;;;35.23;22.37;;;6.50;99.90;;;;;;5002652;28;20229;-80
2021/11/11 11:39:40;;;;;;;40.77;23.07;;;6.60;99.90;;;;;;5018562;28;20187;-79
2021/11/11 11:42:16;;;;;;;115.10;51.73;;;6.70;99.90;;;;;;5015730;28;20265;-81
2021/11/11 11:44:48;;;;;;;67.70;33.30;;;6.60;99.90;;;;;;4989584;28;20179;-80
2021/11/11 11:47:22;;;;;;;32.97;21.10;;;6.60;99.90;;;;;;5009619;28;20184;-80
2021/11/11 11:49:53;;;;;;;38.17;22.50;;;6.50;99.90;;;;;;5014334;28;20206;-80
2021/11/11 11:52:21;;;;;;;38.93;23.97;;;6.60;99.90;;;;;;5001765;28;20202;-80
2021/11/11 12:00:33;;;;;;;35.27;21.73;;;6.50;99.90;;;;;;5008978;28;20213;-79
2021/11/11 12:06:07;;;;;;;25.03;19.23;;;6.60;99.90;;;;;;5010424;28;20182;-80
2021/11/11 12:39:59;;;;;;;26.30;19.00;;;7.40;99.90;;;;;;4949924;28;20379;-79
2021/11/11 12:42:42;;;;;;;25.33;18.63;;;7.40;99.90;;;;;;4949516;28;20759;-80
2021/11/11 12:45:18;;;;;;;24.40;18.10;;;7.40;99.90;;;;;;5006442;28;20199;-80
2021/11/11 12:48:01;;;;;;;22.93;18.67;;;7.50;99.90;;;;;;4998230;28;20206;-80
2021/11/11 12:50:30;;;;;;;23.37;18.73;;;7.50;99.90;;;;;;5008692;28;20182;-80
2021/11/11 12:53:11;;;;;;;22.87;18.10;;;7.50;99.90;;;;;;5014343;28;20185;-81
2021/11/11 12:56:10;;;;;;;24.53;19.13;;;7.50;99.90;;;;;;5008447;28;20294;-79
2021/11/11 12:58:37;;;;;;;24.10;18.23;;;7.60;99.90;;;;;;4980550;28;20207;-80
2021/11/11 13:01:10;;;;;;;21.93;18.10;;;7.70;99.90;;;;;;5010641;28;20186;-81
2021/11/11 13:03:51;;;;;;;26.40;19.40;;;7.80;99.90;;;;;;4998326;28;20179;-80
2021/11/11 13:06:32;;;;;;;23.30;18.17;;;7.70;99.90;;;;;;5002396;28;20175;-80
2021/11/11 13:08:59;;;;;;;24.73;18.87;;;7.80;99.90;;;;;;5015724;28;20231;-81
2021/11/11 13:11:38;;;;;;;23.40;18.43;;;7.80;99.90;;;;;;5012235;28;20553;-80
2021/11/11 13:14:25;;;;;;;26.13;18.60;;;7.80;99.90;;;;;;5009370;28;20260;-81
2021/11/11 13:16:56;;;;;;;24.70;18.60;;;7.90;99.90;;;;;;5013470;28;20233;-79
2021/11/11 13:19:47;;;;;;;22.93;19.60;;;7.90;99.90;;;;;;5010534;28;20583;-80
2021/11/11 14:27:44;;;;;;;28.70;20.30;;;8.20;99.90;;;;;;5004458;28;20199;-80
2021/11/11 16:22:45;;;;;;;37.67;22.50;;;6.90;99.90;;;;;;5014335;28;20197;-80
2021/11/11 16:27:20;;;;;;;36.77;23.67;;;6.80;99.90;;;;;;4983947;28;20583;-80
2021/11/11 16:29:46;;;;;;;30.10;21.33;;;6.80;99.90;;;;;;5018790;28;20257;-83
2021/11/11 16:32:13;;;;;;;31.50;22.30;;;6.80;99.90;;;;;;5018240;28;20186;-82
2021/11/11 16:34:38;;;;;;;36.23;22.63;;;6.70;99.90;;;;;;5001663;28;20202;-82
2021/11/11 16:37:06;;;;;;;33.60;22.00;;;6.60;99.90;;;;;;5019181;28;20239;-83
2021/11/11 16:39:33;;;;;;;30.90;23.30;;;6.60;99.90;;;;;;5019328;28;20703;-81
2021/11/11 16:41:58;;;;;;;32.27;22.53;;;6.50;99.90;;;;;;5010057;28;20172;-82
2021/11/11 16:44:25;;;;;;;38.47;24.17;;;6.50;99.90;;;;;;5009566;28;20286;-82
2021/11/11 16:46:52;;;;;;;40.47;23.60;;;6.40;99.90;;;;;;5001159;28;20183;-83
2021/11/11 16:49:18;;;;;;;46.83;25.77;;;6.40;99.90;;;;;;5014238;28;20210;-82
2021/11/11 16:51:45;;;;;;;40.10;24.43;;;6.30;99.90;;;;;;4991597;28;20183;-82
2021/11/11 16:54:11;;;;;;;39.37;24.13;;;6.40;99.90;;;;;;5001794;28;20201;-82